Time;durP1;ratioP1;P1;durP2;ratioP2;P2;SDS_P1;SDS_P2;PMS_P1;PMS_P2;Temp;Humidity;BMP_temperature;BMP_pressure;BME280_temperature;BME280_humidity;BME280_pressure;Samples;Min_cycle;Max_cycle;Signal;HPM_P1;HPM_P2
2022/12/22 03:27:14;;;;;;;70.63;14.52;;;;;;;8.74;100.00;100161.38;5208675;28;20494;-80
2022/12/22 03:29:44;;;;;;;159.98;20.65;;;;;;;8.75;100.00;100164.91;5207238;28;20287;-81
2022/12/22 03:32:15;;;;;;;134.55;17.27;;;;;;;8.76;100.00;100155.88;5207978;28;20497;-81
2022/12/22 03:34:45;;;;;;;255.85;23.00;;;;;;;8.77;100.00;100162.88;5207868;28;20025;-80
2022/12/22 03:37:16;;;;;;;49.10;12.95;;;;;;;8.78;100.00;100160.03;5207726;28;20025;-80
2022/12/22 03:39:46;;;;;;;230.88;20.40;;;;;;;8.77;100.00;100150.34;5206932;28;20398;-80
2022/12/22 03:47:57;;;;;;;96.70;17.35;;;;;;;8.76;100.00;100158.53;5207685;28;20057;-80
2022/12/22 03:50:28;;;;;;;18.52;9.20;;;;;;;8.77;100.00;100157.53;5207902;28;20045;-80
2022/12/22 03:52:58;;;;;;;19.70;9.93;;;;;;;8.82;100.00;100155.16;5208649;28;20450;-80
2022/12/22 03:55:29;;;;;;;26.08;10.27;;;;;;;8.81;100.00;100154.34;5207765;28;20029;-80
2022/12/22 03:57:59;;;;;;;21.85;9.38;;;;;;;8.82;100.00;100157.84;5207990;28;20040;-79
2022/12/22 04:00:30;;;;;;;25.15;10.75;;;;;;;8.83;100.00;100156.84;5206887;28;20488;-79
2022/12/22 04:03:00;;;;;;;21.10;10.80;;;;;;;8.81;100.00;100150.84;5208315;28;20030;-79
2022/12/22 04:05:30;;;;;;;26.17;11.50;;;;;;;8.80;100.00;100154.53;5207456;28;20025;-79
2022/12/22 04:08:01;;;;;;;24.20;11.05;;;;;;;8.76;100.00;100154.03;5209183;28;20026;-79
2022/12/22 04:13:34;;;;;;;30.52;11.63;;;;;;;8.78;100.00;100161.88;5186218;28;20116;-80
2022/12/22 04:16:05;;;;;;;26.90;12.43;;;;;;;8.91;100.00;100174.72;5207059;28;20168;-80
2022/12/22 04:18:35;;;;;;;37.25;15.98;;;;;;;8.91;100.00;100164.84;5206435;28;20108;-80
2022/12/22 04:21:05;;;;;;;32.63;13.98;;;;;;;8.99;100.00;100167.50;5227430;28;20115;-80
2022/12/22 04:23:36;;;;;;;67.13;28.45;;;;;;;9.10;100.00;100165.47;5210321;28;20071;-80
2022/12/22 04:26:06;;;;;;;33.75;14.75;;;;;;;9.11;100.00;100165.28;5209042;28;20061;-79
2022/12/22 04:28:37;;;;;;;31.33;13.45;;;;;;;9.19;100.00;100162.56;5210987;28;20029;-79
2022/12/22 04:31:07;;;;;;;30.60;12.80;;;;;;;9.20;100.00;100171.44;5206238;28;20026;-79
2022/12/22 04:33:38;;;;;;;39.85;16.42;;;;;;;9.20;100.00;100174.13;5206529;28;20032;-79
2022/12/22 04:36:09;;;;;;;32.92;14.25;;;;;;;9.18;100.00;100176.13;5206563;28;20037;-79
2022/12/22 04:38:40;;;;;;;34.20;14.52;;;;;;;9.20;100.00;100182.97;5206479;28;20394;-79
2022/12/22 04:41:10;;;;;;;35.08;15.38;;;;;;;9.24;100.00;100186.16;5206085;28;20033;-79
2022/12/22 04:43:41;;;;;;;35.70;15.00;;;;;;;9.19;100.00;100184.00;5205370;28;20096;-79
2022/12/22 04:46:11;;;;;;;39.00;15.52;;;;;;;9.17;100.00;100188.66;5205328;28;20112;-79
2022/12/22 04:48:42;;;;;;;37.92;15.35;;;;;;;9.19;100.00;100193.88;5206466;28;20363;-79
2022/12/22 04:51:12;;;;;;;35.53;15.70;;;;;;;9.29;100.00;100197.16;5206378;28;20030;-79
2022/12/22 04:53:43;;;;;;;37.85;15.57;;;;;;;9.26;100.00;100201.00;5206628;28;20068;-79
2022/12/22 04:56:13;;;;;;;36.67;14.90;;;;;;;9.26;100.00;100192.97;5207163;28;20032;-79
2022/12/22 04:58:44;;;;;;;34.00;14.50;;;;;;;9.29;100.00;100192.66;5205751;28;20032;-80
2022/12/22 05:01:16;;;;;;;34.92;15.43;;;;;;;9.26;100.00;100201.00;5206442;28;20021;-79
2022/12/22 05:03:47;;;;;;;37.58;15.27;;;;;;;9.24;100.00;100191.50;5206588;28;20025;-79
2022/12/22 05:06:18;;;;;;;29.40;13.43;;;;;;;9.22;100.00;100204.22;5205899;28;20029;-79
2022/12/22 05:08:48;;;;;;;40.08;15.20;;;;;;;9.16;100.00;100208.41;5206792;28;20025;-79
2022/12/22 05:11:19;;;;;;;34.72;13.85;;;;;;;9.13;100.00;100207.91;5205651;28;20036;-79
2022/12/22 05:13:49;;;;;;;40.78;15.93;;;;;;;9.11;100.00;100201.91;5207079;28;21136;-79
2022/12/22 05:16:20;;;;;;;37.72;14.98;;;;;;;9.06;100.00;100202.41;5206285;28;20421;-79
2022/12/22 05:18:50;;;;;;;42.75;14.75;;;;;;;9.08;100.00;100205.75;5207988;28;20405;-79
2022/12/22 05:21:22;;;;;;;37.42;14.68;;;;;;;9.14;100.00;100198.91;5210031;28;20021;-79
2022/12/22 05:23:52;;;;;;;42.65;15.23;;;;;;;9.08;100.00;100205.75;5206501;28;20017;-79
2022/12/22 05:26:22;;;;;;;39.42;15.90;;;;;;;9.02;100.00;100209.94;5206213;28;20509;-79
2022/12/22 05:28:53;;;;;;;42.67;15.43;;;;;;;8.97;100.00;100206.94;5206152;28;20029;-79
2022/12/22 05:31:25;;;;;;;42.85;13.65;;;;;;;9.00;100.00;100213.81;5205851;28;20032;-79
2022/12/22 05:33:55;;;;;;;48.70;15.50;;;;;;;9.01;100.00;100215.47;5205338;28;20033;-79
2022/12/22 05:36:26;;;;;;;49.10;15.60;;;;;;;9.06;100.00;100230.00;5206458;28;20511;-79
2022/12/22 05:38:56;;;;;;;61.60;15.75;;;;;;;9.16;100.00;100229.81;5205584;28;20032;-79
2022/12/22 05:41:27;;;;;;;102.07;19.67;;;;;;;9.18;100.00;100230.47;5206215;28;20018;-79
2022/12/22 05:43:57;;;;;;;67.63;16.73;;;;;;;9.16;100.00;100235.16;5206502;28;20108;-79
2022/12/22 05:46:27;;;;;;;83.22;17.02;;;;;;;9.23;100.00;100248.69;5205141;28;20522;-79
2022/12/22 05:48:58;;;;;;;70.00;16.85;;;;;;;9.19;100.00;100263.44;5206724;28;20120;-79
2022/12/22 05:51:28;;;;;;;62.25;16.10;;;;;;;9.20;100.00;100259.75;5204585;28;20056;-79
2022/12/22 05:53:59;;;;;;;76.82;18.75;;;;;;;9.21;100.00;100272.13;5205962;28;20057;-79
2022/12/22 05:56:29;;;;;;;72.43;19.33;;;;;;;9.21;100.00;100277.47;5206567;28;20104;-79
2022/12/22 05:58:59;;;;;;;69.47;19.30;;;;;;;9.28;100.00;100279.28;5206450;28;20053;-79
2022/12/22 06:01:30;;;;;;;66.55;19.10;;;;;;;9.27;100.00;100291.00;5205808;28;20363;-79
2022/12/22 06:04:00;;;;;;;68.53;18.95;;;;;;;9.34;100.00;100296.53;5206298;28;20021;-79
2022/12/22 06:06:31;;;;;;;86.60;21.98;;;;;;;9.31;100.00;100299.53;5205881;28;20029;-79
2022/12/22 06:09:01;;;;;;;74.38;22.20;;;;;;;9.43;100.00;100302.66;5206158;28;20029;-83
2022/12/22 06:11:32;;;;;;;71.50;21.50;;;;;;;9.49;100.00;100308.19;5204480;28;20108;-83
2022/12/22 06:14:02;;;;;;;66.80;21.17;;;;;;;9.53;100.00;100309.50;5204947;28;20032;-83
2022/12/22 06:16:33;;;;;;;71.63;20.55;;;;;;;9.55;100.00;100323.56;5204695;28;20120;-83
2022/12/22 06:19:03;;;;;;;76.43;23.20;;;;;;;9.57;100.00;100323.38;5209553;28;20053;-80
2022/12/22 06:21:34;;;;;;;77.13;23.10;;;;;;;9.53;100.00;100333.59;5206078;28;20158;-80
2022/12/22 06:24:05;;;;;;;97.95;27.45;;;;;;;9.53;100.00;100340.78;5205278;28;20035;-78
2022/12/22 06:26:35;;;;;;;101.32;29.50;;;;;;;9.56;100.00;100338.63;5207696;28;20156;-79
2022/12/22 06:29:05;;;;;;;105.30;30.77;;;;;;;9.57;100.00;100347.47;5206106;28;20033;-80
2022/12/22 06:31:36;;;;;;;103.57;30.70;;;;;;;9.57;100.00;100355.50;5203526;28;20032;-80
2022/12/22 06:34:09;;;;;;;105.13;31.52;;;;;;;9.53;100.00;100360.38;5203504;28;20028;-79
2022/12/22 06:36:39;;;;;;;94.07;30.02;;;;;;;9.53;100.00;100359.53;5203877;28;20021;-79
2022/12/22 06:39:10;;;;;;;106.20;30.98;;;;;;;9.52;100.00;100374.78;5203870;28;20025;-80
2022/12/22 06:44:29;;;;;;;104.80;32.05;;;;;;;9.57;100.00;100382.31;5204575;28;20497;-79
2022/12/22 06:47:00;;;;;;;94.53;30.17;;;;;;;9.57;100.00;100387.66;5204600;28;20029;-79
2022/12/22 06:49:30;;;;;;;96.45;31.58;;;;;;;9.53;100.00;100389.81;5203024;28;20037;-80
2022/12/22 06:52:01;;;;;;;99.85;30.67;;;;;;;9.53;100.00;100386.31;5202993;28;20021;-82
2022/12/22 06:54:31;;;;;;;89.47;29.63;;;;;;;9.53;100.00;100392.50;5203111;28;20065;-81
2022/12/22 06:57:02;;;;;;;89.30;30.13;;;;;;;9.48;100.00;100396.69;5202937;28;20029;-82
2022/12/22 06:59:32;;;;;;;89.43;29.42;;;;;;;9.44;100.00;100401.59;5202994;28;20022;-82
2022/12/22 07:02:03;;;;;;;83.22;28.05;;;;;;;9.37;100.00;100405.94;5203864;28;20083;-81
2022/12/22 07:04:33;;;;;;;92.03;30.67;;;;;;;9.38;100.00;100417.47;5203307;28;20398;-82
2022/12/22 07:07:04;;;;;;;95.15;29.75;;;;;;;9.34;100.00;100422.34;5202814;28;20115;-81
2022/12/22 07:09:34;;;;;;;89.38;28.42;;;;;;;9.34;100.00;100425.03;5202829;28;20040;-81
2022/12/22 07:12:05;;;;;;;93.20;28.42;;;;;;;9.27;100.00;100430.19;5203689;28;20030;-82
2022/12/22 07:14:35;;;;;;;87.35;28.65;;;;;;;9.24;100.00;100435.91;5202478;28;20021;-82
2022/12/22 07:17:06;;;;;;;94.07;29.23;;;;;;;9.22;100.00;100445.91;5203816;28;20112;-82
2022/12/22 07:19:36;;;;;;;96.93;30.35;;;;;;;9.16;100.00;100451.13;5210030;28;20695;-81
2022/12/22 07:22:07;;;;;;;91.45;28.50;;;;;;;9.19;100.00;100450.78;5203744;28;20140;-82
2022/12/22 07:24:37;;;;;;;98.05;30.10;;;;;;;9.14;100.00;100456.63;5202659;28;20078;-82
2022/12/22 07:27:09;;;;;;;94.57;29.35;;;;;;;9.16;100.00;100459.13;5202808;28;20056;-82
2022/12/22 07:29:40;;;;;;;96.20;29.63;;;;;;;9.10;100.00;100457.97;5203477;28;20028;-82
2022/12/22 07:32:11;;;;;;;98.75;28.85;;;;;;;9.09;100.00;100456.31;5205124;28;20478;-81
2022/12/22 07:34:41;;;;;;;94.85;28.77;;;;;;;9.04;100.00;100464.81;5210930;28;20028;-81
2022/12/22 07:37:12;;;;;;;96.85;29.50;;;;;;;8.99;100.00;100471.69;5213496;28;20076;-81
2022/12/22 07:39:43;;;;;;;108.38;30.52;;;;;;;8.90;100.00;100469.97;5212368;28;20044;-80
2022/12/22 07:45:02;;;;;;;109.13;31.65;;;;;;;8.76;100.00;100493.69;5213349;28;20432;-81
2022/12/22 07:47:33;;;;;;;120.20;36.95;;;;;;;8.70;100.00;100505.03;5212190;28;20040;-81
2022/12/22 07:52:59;;;;;;;108.70;29.50;;;;;;;8.58;100.00;100517.00;5212822;28;20060;-82
2022/12/22 07:55:35;;;;;;;113.22;32.45;;;;;;;8.51;100.00;100527.53;5212222;28;20020;-81
2022/12/22 07:58:05;;;;;;;120.38;33.58;;;;;;;8.52;100.00;100523.84;5212761;28;20060;-81
2022/12/22 08:00:36;;;;;;;119.22;34.47;;;;;;;8.50;100.00;100519.66;5212100;28;20432;-81
2022/12/22 08:03:08;;;;;;;116.22;30.40;;;;;;;8.47;100.00;100536.03;5212404;28;20022;-82
2022/12/22 08:05:38;;;;;;;118.63;33.25;;;;;;;8.40;100.00;100530.47;5211266;28;20053;-81
2022/12/22 08:08:09;;;;;;;143.52;46.38;;;;;;;8.31;100.00;100545.59;5211603;28;20032;-81
2022/12/22 08:10:39;;;;;;;149.10;35.05;;;;;;;8.21;100.00;100554.72;5212589;28;20022;-81
2022/12/22 08:13:09;;;;;;;120.72;31.60;;;;;;;8.14;100.00;100557.22;5212562;28;20021;-79
2022/12/22 08:15:40;;;;;;;139.05;40.50;;;;;;;8.12;100.00;100569.03;5211441;28;20022;-81
2022/12/22 08:18:11;;;;;;;139.43;37.90;;;;;;;8.08;100.00;100587.19;5211118;28;20052;-81
2022/12/22 08:20:48;;;;;;;135.30;35.50;;;;;;;8.06;100.00;100597.22;5218213;28;20429;-81
2022/12/22 08:23:19;;;;;;;130.73;34.03;;;;;;;8.18;100.00;100600.47;5211694;28;20433;-81
2022/12/22 08:25:56;;;;;;;126.70;33.50;;;;;;;8.30;100.00;100599.22;5211465;28;20022;-81
2022/12/22 08:28:30;;;;;;;125.70;34.50;;;;;;;8.35;100.00;100620.13;5213353;28;20117;-81
2022/12/22 08:31:01;;;;;;;123.70;36.78;;;;;;;8.38;100.00;100623.34;5210613;28;20052;-81
2022/12/22 08:33:31;;;;;;;120.70;33.45;;;;;;;8.39;100.00;100648.28;5211300;28;20084;-79
2022/12/22 08:36:04;;;;;;;129.07;36.63;;;;;;;8.46;100.00;100652.81;5213166;28;20470;-80
2022/12/22 08:38:38;;;;;;;117.13;31.73;;;;;;;8.53;100.00;100639.66;5211295;28;20063;-80
2022/12/22 08:41:12;;;;;;;138.73;32.60;;;;;;;8.52;100.00;100646.84;5212810;28;20390;-79
2022/12/22 08:43:43;;;;;;;126.68;31.88;;;;;;;8.47;100.00;100641.13;5211787;28;20033;-81
2022/12/22 08:46:13;;;;;;;134.32;32.83;;;;;;;8.46;100.00;100650.16;5209925;28;20030;-81
2022/12/22 08:48:44;;;;;;;99.43;27.95;;;;;;;8.54;100.00;100658.22;5210965;28;20021;-82
2022/12/22 08:51:14;;;;;;;95.38;28.27;;;;;;;8.80;100.00;100660.03;5209120;28;20124;-81
2022/12/22 08:53:45;;;;;;;126.32;45.90;;;;;;;9.12;100.00;100658.50;5209612;28;20037;-80
2022/12/22 08:56:15;;;;;;;129.07;50.58;;;;;;;9.12;100.00;100658.50;5210180;28;20070;-80
2022/12/22 08:58:46;;;;;;;102.07;33.55;;;;;;;9.10;100.00;100655.16;5210181;28;20382;-80
2022/12/22 09:01:18;;;;;;;95.10;28.27;;;;;;;9.17;100.00;100656.19;5210191;28;20028;-80
2022/12/22 09:03:50;;;;;;;96.07;28.17;;;;;;;9.06;100.00;100658.16;5209546;28;20418;-82
2022/12/22 09:06:22;;;;;;;91.93;28.40;;;;;;;9.02;100.00;100663.97;5207877;28;20033;-81
2022/12/22 09:09:00;;;;;;;90.65;29.45;;;;;;;9.04;100.00;100678.06;5205467;28;20021;-83
2022/12/22 09:11:31;;;;;;;90.63;27.17;;;;;;;9.01;100.00;100684.56;5204020;28;20402;-80
2022/12/22 09:14:03;;;;;;;99.82;32.53;;;;;;;8.98;100.00;100676.00;5205082;28;20502;-78
2022/12/22 09:16:34;;;;;;;105.32;33.63;;;;;;;9.00;100.00;100671.34;5203992;28;20116;-80
2022/12/22 09:19:05;;;;;;;87.97;28.20;;;;;;;8.97;100.00;100677.84;5208835;28;20021;-79
2022/12/22 09:21:36;;;;;;;134.35;53.58;;;;;;;8.98;100.00;100687.53;5206871;28;20032;-79
2022/12/22 09:24:07;;;;;;;103.93;35.47;;;;;;;8.97;100.00;100679.69;5205444;28;20026;-79
2022/12/22 09:26:38;;;;;;;83.25;28.52;;;;;;;8.92;100.00;100685.50;5205110;28;20033;-79
2022/12/22 09:29:09;;;;;;;109.32;38.85;;;;;;;8.88;100.00;100699.34;5205393;28;20025;-79
2022/12/22 09:31:40;;;;;;;96.75;34.22;;;;;;;8.93;100.00;100702.41;5204874;28;20626;-79
2022/12/22 09:34:11;;;;;;;136.70;58.28;;;;;;;8.91;100.00;100707.06;5204477;28;20561;-79
2022/12/22 09:36:41;;;;;;;134.52;54.45;;;;;;;8.88;100.00;100712.72;5204386;28;20132;-78
2022/12/22 09:39:13;;;;;;;113.07;40.95;;;;;;;8.84;100.00;100720.25;5205962;28;20123;-79
2022/12/22 09:41:48;;;;;;;83.53;28.95;;;;;;;8.85;100.00;100726.44;5205844;28;20025;-79
2022/12/22 09:44:22;;;;;;;93.07;31.38;;;;;;;8.85;100.00;100723.78;5205104;28;20029;-79
2022/12/22 09:46:56;;;;;;;99.07;31.55;;;;;;;8.82;100.00;100727.59;5205114;28;20060;-78
2022/12/22 09:49:27;;;;;;;85.75;27.63;;;;;;;8.79;100.00;100723.41;5204456;28;20029;-78
2022/12/22 09:52:02;;;;;;;86.97;27.77;;;;;;;8.88;100.00;100734.13;5205533;28;20482;-78
2022/12/22 09:54:33;;;;;;;74.78;22.50;;;;;;;8.79;100.00;100731.44;5206512;28;20037;-78
2022/12/22 09:57:10;;;;;;;73.20;26.88;;;;;;;8.84;100.00;100728.28;5204899;28;20029;-79
2022/12/22 09:59:40;;;;;;;78.07;26.30;;;;;;;8.85;100.00;100718.41;5204983;28;20067;-78
2022/12/22 10:02:39;;;;;;;75.45;28.08;;;;;;;8.92;100.00;100728.31;5205341;28;20074;-79
2022/12/22 10:05:37;;;;;;;82.15;29.02;;;;;;;9.01;100.00;100716.66;5206345;28;20490;-78
2022/12/22 10:08:13;;;;;;;76.93;26.23;;;;;;;9.01;100.00;100716.66;5206162;28;20060;-79
2022/12/22 10:10:44;;;;;;;77.05;29.40;;;;;;;8.96;100.00;100718.16;5204567;28;20027;-79
2022/12/22 10:13:17;;;;;;;80.38;27.80;;;;;;;8.96;100.00;100728.84;5205765;28;20013;-79
2022/12/22 10:15:49;;;;;;;59.30;22.42;;;;;;;9.00;100.00;100727.53;5205385;28;20032;-79
2022/12/22 10:18:22;;;;;;;61.97;23.00;;;;;;;9.10;100.00;100735.44;5192055;28;20025;-79
2022/12/22 10:21:14;;;;;;;59.50;22.23;;;;;;;9.24;100.00;100743.72;5211733;28;20139;-79
2022/12/22 10:23:46;;;;;;;65.18;23.63;;;;;;;9.30;100.00;100739.56;5205871;28;20017;-79
2022/12/22 10:26:27;;;;;;;56.22;21.15;;;;;;;9.36;100.00;100746.94;5205893;28;20099;-79
2022/12/22 10:29:09;;;;;;;61.97;21.42;;;;;;;9.35;100.00;100742.59;5205138;28;20104;-78
2022/12/22 10:32:00;;;;;;;60.85;20.33;;;;;;;9.32;100.00;100749.09;5205739;28;20034;-78
2022/12/22 10:34:30;;;;;;;64.28;21.90;;;;;;;9.33;100.00;100744.59;5206510;28;20022;-79
2022/12/22 10:37:04;;;;;;;58.00;20.20;;;;;;;9.34;100.00;100740.94;5205102;28;20497;-79
2022/12/22 10:39:37;;;;;;;50.00;19.23;;;;;;;9.40;100.00;100734.09;5204822;28;20076;-79
2022/12/22 10:42:12;;;;;;;42.60;17.88;;;;;;;9.44;100.00;100744.31;5205134;28;20021;-79
2022/12/22 10:44:46;;;;;;;77.57;31.27;;;;;;;9.39;100.00;100749.31;5208243;28;20037;-79
2022/12/22 10:47:19;;;;;;;100.38;42.33;;;;;;;9.34;100.00;100748.97;5208109;28;20117;-79
2022/12/22 10:49:55;;;;;;;50.50;22.00;;;;;;;9.35;100.00;100753.31;5209637;28;20044;-79
2022/12/22 10:52:28;;;;;;;38.72;16.98;;;;;;;9.42;100.00;100757.00;5209326;28;20018;-79
2022/12/22 10:55:19;;;;;;;44.03;17.85;;;;;;;9.46;100.00;100757.53;5208550;28;20025;-79
2022/12/22 10:57:50;;;;;;;41.60;17.90;;;;;;;9.54;100.00;100755.72;5209011;28;20021;-79
2022/12/22 11:00:25;;;;;;;37.75;17.50;;;;;;;9.50;100.00;100759.72;5209365;28;20125;-79
2022/12/22 11:02:59;;;;;;;44.97;17.67;;;;;;;9.50;100.00;100754.38;5209629;28;20057;-80
2022/12/22 11:05:30;;;;;;;43.05;18.83;;;;;;;9.52;100.00;100762.25;5208788;28;20088;-79
2022/12/22 11:08:15;;;;;;;45.20;18.92;;;;;;;9.57;100.00;100760.75;5209107;28;20064;-79
2022/12/22 11:11:04;;;;;;;47.92;20.95;;;;;;;9.52;100.00;100759.56;5211764;28;20025;-79
2022/12/22 11:13:56;;;;;;;43.90;20.27;;;;;;;9.45;100.00;100761.22;5213513;28;20099;-79
2022/12/22 11:16:45;;;;;;;42.00;19.02;;;;;;;9.28;100.00;100762.97;5208222;28;20029;-79
2022/12/22 11:19:40;;;;;;;38.45;17.85;;;;;;;9.22;100.00;100760.94;5218601;28;20134;-79
2022/12/22 11:22:40;;;;;;;35.53;16.00;;;;;;;9.15;100.00;100766.09;5203423;28;20101;-79
2022/12/22 11:25:23;;;;;;;29.85;15.60;;;;;;;9.30;100.00;100764.50;5196369;28;20056;-79
2022/12/22 11:28:10;;;;;;;31.88;15.60;;;;;;;9.40;100.00;100764.38;5212978;28;20048;-79
2022/12/22 11:30:59;;;;;;;39.10;17.05;;;;;;;9.39;100.00;100757.34;5211440;28;20025;-79
2022/12/22 11:33:54;;;;;;;36.50;16.17;;;;;;;9.40;100.00;100755.50;5213826;28;20083;-79
2022/12/22 11:36:37;;;;;;;31.48;15.05;;;;;;;9.36;100.00;100762.19;5213130;28;20383;-81
2022/12/22 11:39:14;;;;;;;30.10;14.18;;;;;;;9.25;100.00;100765.97;5212869;28;20155;-81
2022/12/22 11:42:02;;;;;;;29.08;13.88;;;;;;;9.12;100.00;100754.84;5212150;28;20009;-81
2022/12/22 11:44:46;;;;;;;26.48;12.63;;;;;;;9.15;100.00;100736.66;5211957;28;20037;-81
2022/12/22 11:47:55;;;;;;;22.60;11.45;;;;;;;9.06;100.00;100743.78;5212450;28;20120;-81
2022/12/22 11:50:45;;;;;;;21.25;11.43;;;;;;;9.12;100.00;100733.44;5210590;28;20048;-81
2022/12/22 11:53:40;;;;;;;22.83;11.65;;;;;;;9.06;100.00;100727.72;5212815;28;20025;-80
2022/12/22 11:56:22;;;;;;;23.48;10.45;;;;;;;9.10;100.00;100728.25;5201076;28;20037;-81
2022/12/22 11:59:31;;;;;;;18.38;9.43;;;;;;;9.05;100.00;100726.06;5210933;28;20037;-81
2022/12/22 12:02:38;;;;;;;23.48;10.35;;;;;;;9.10;100.00;100724.75;5211703;28;20037;-81
2022/12/22 12:05:34;;;;;;;22.52;8.82;;;;;;;9.06;100.00;100714.34;5210951;28;20033;-81
2022/12/22 12:08:25;;;;;;;24.23;8.75;;;;;;;9.21;100.00;100709.25;5210439;28;20025;-82
2022/12/22 12:11:16;;;;;;;17.27;8.88;;;;;;;9.17;100.00;100709.72;5210624;28;20441;-81
2022/12/22 12:14:06;;;;;;;19.85;9.27;;;;;;;9.15;100.00;100709.88;5210713;28;20075;-81
2022/12/22 12:17:12;;;;;;;14.95;8.40;;;;;;;9.11;100.00;100702.34;5208472;28;20187;-81
2022/12/22 12:20:02;;;;;;;14.63;8.43;;;;;;;9.21;100.00;100706.56;5117178;28;20031;-81
2022/12/22 12:22:51;;;;;;;14.40;8.25;;;;;;;9.26;100.00;100701.56;5206396;28;20202;-81
2022/12/22 12:26:03;;;;;;;17.60;8.00;;;;;;;9.34;100.00;100703.44;5199992;28;20031;-81
2022/12/22 12:29:11;;;;;;;16.58;8.48;;;;;;;9.27;100.00;100695.19;5210411;28;20017;-81
2022/12/22 12:31:47;;;;;;;13.70;7.53;;;;;;;9.36;100.00;100679.19;5209810;28;20521;-81
2022/12/22 12:34:20;;;;;;;14.90;7.88;;;;;;;9.45;100.00;100687.06;5210689;28;20100;-81
2022/12/22 12:37:06;;;;;;;16.75;7.53;;;;;;;9.53;100.00;100676.38;5210992;28;20025;-81
2022/12/22 12:40:13;;;;;;;17.83;7.88;;;;;;;9.64;100.00;100677.06;5209922;28;20029;-81
2022/12/22 12:42:46;;;;;;;17.63;7.95;;;;;;;9.74;100.00;100675.06;5211443;28;20044;-81
2022/12/22 12:45:41;;;;;;;12.60;6.47;;;;;;;9.77;100.00;100674.75;5211080;28;20040;-81
2022/12/22 12:48:20;;;;;;;17.65;7.20;;;;;;;9.70;100.00;100685.31;5211288;28;20017;-81
2022/12/22 12:50:53;;;;;;;11.00;6.13;;;;;;;9.68;100.00;100678.41;5209508;28;20026;-81
2022/12/22 12:53:28;;;;;;;10.13;5.85;;;;;;;9.67;100.00;100679.41;5211272;28;20028;-81
2022/12/22 12:56:07;;;;;;;12.13;5.60;;;;;;;9.70;100.00;100679.94;5211247;28;20036;-81
2022/12/22 12:58:38;;;;;;;12.45;5.00;;;;;;;9.62;100.00;100671.88;5210279;28;20524;-81
2022/12/22 13:01:11;;;;;;;8.85;4.47;;;;;;;9.62;100.00;100668.38;5207476;28;20108;-81
2022/12/22 13:03:43;;;;;;;10.73;3.83;;;;;;;9.66;100.00;100662.53;5207621;28;20385;-81
2022/12/22 13:06:49;;;;;;;15.80;4.15;;;;;;;9.65;100.00;100654.66;5207010;28;20025;-81
2022/12/22 13:09:24;;;;;;;;;;;;;;;9.67;100.00;100650.78;5206389;28;20022;-81
2022/12/22 13:11:55;;;;;;;10.30;3.25;;;;;;;9.63;100.00;100654.78;5206098;28;19923;-81
2022/12/22 13:14:54;;;;;;;8.50;3.70;;;;;;;9.59;100.00;100654.31;5206090;28;20029;-81
2022/12/22 13:17:47;;;;;;;8.50;3.85;;;;;;;9.53;100.00;100646.91;5207310;28;20044;-81
2022/12/22 13:20:25;;;;;;;8.68;3.20;;;;;;;9.53;100.00;100640.72;5206709;28;20480;-81
2022/12/22 13:22:59;;;;;;;5.70;2.85;;;;;;;9.43;100.00;100645.38;5206026;28;20040;-81
2022/12/22 13:25:41;;;;;;;7.72;2.95;;;;;;;9.41;100.00;100629.50;5206385;28;20029;-81
2022/12/22 13:28:16;;;;;;;8.35;3.13;;;;;;;9.31;100.00;100632.31;5205065;28;20022;-81
2022/12/22 13:30:50;;;;;;;8.13;3.50;;;;;;;9.18;100.00;100634.59;5206660;28;20880;-81
2022/12/22 13:33:24;;;;;;;9.52;3.88;;;;;;;9.11;100.00;100625.56;5204663;28;20080;-81
2022/12/22 13:35:56;;;;;;;5.38;2.95;;;;;;;9.04;100.00;100624.53;5207344;28;20040;-81
2022/12/22 13:38:28;;;;;;;9.45;3.72;;;;;;;9.00;100.00;100621.34;5196938;28;20026;-80
2022/12/22 13:41:03;;;;;;;10.73;4.03;;;;;;;8.95;100.00;100614.81;5206360;28;20056;-81
2022/12/22 13:43:34;;;;;;;9.48;3.80;;;;;;;8.91;100.00;100616.94;5207067;28;20029;-81
2022/12/22 13:46:08;;;;;;;10.60;4.47;;;;;;;8.77;100.00;100606.84;5203498;28;20533;-81
2022/12/22 13:48:43;;;;;;;11.00;3.97;;;;;;;8.71;100.00;100604.81;5207002;28;20033;-81
2022/12/22 13:51:21;;;;;;;7.63;3.78;;;;;;;8.67;100.00;100596.28;5204795;28;20052;-81
2022/12/22 13:54:10;;;;;;;9.45;4.75;;;;;;;8.69;100.00;100585.44;5205520;28;20025;-81
2022/12/22 13:56:58;;;;;;;10.77;4.85;;;;;;;8.62;100.00;100582.56;5204806;28;20036;-81
2022/12/22 13:59:39;;;;;;;10.50;4.65;;;;;;;8.54;100.00;100582.53;5205366;28;20041;-81
2022/12/22 14:02:12;;;;;;;18.90;5.28;;;;;;;8.51;100.00;100580.16;5212614;28;20410;-81
2022/12/22 14:05:02;;;;;;;10.02;6.05;;;;;;;8.50;100.00;100584.69;5208165;28;20517;-81
2022/12/22 14:07:32;;;;;;;11.05;6.22;;;;;;;8.46;100.00;100577.97;5208966;28;20434;-81
2022/12/22 14:10:03;;;;;;;15.50;7.32;;;;;;;8.45;100.00;100576.28;5208399;28;20111;-82
2022/12/22 14:12:44;;;;;;;13.40;7.45;;;;;;;8.48;100.00;100572.44;5204617;28;20044;-81
2022/12/22 14:15:18;;;;;;;15.88;7.35;;;;;;;8.48;100.00;100564.44;5204632;28;20112;-81
2022/12/22 14:17:49;;;;;;;15.43;7.65;;;;;;;8.50;100.00;100567.78;5203297;28;20025;-81
2022/12/22 14:20:34;;;;;;;15.55;8.35;;;;;;;8.49;100.00;100566.13;5210752;28;20115;-82
2022/12/22 14:23:16;;;;;;;15.77;7.35;;;;;;;8.52;100.00;100569.28;5208472;28;20026;-81
2022/12/22 14:25:49;;;;;;;14.13;8.32;;;;;;;8.52;100.00;100563.94;5207421;28;20049;-81
2022/12/22 14:28:26;;;;;;;16.52;8.48;;;;;;;8.50;100.00;100555.25;5204039;28;20021;-81
2022/12/22 14:30:59;;;;;;;14.93;9.10;;;;;;;8.55;100.00;100550.28;5200820;28;20101;-81
2022/12/22 14:33:32;;;;;;;13.18;8.05;;;;;;;8.53;100.00;100554.09;5222482;28;20393;-81
2022/12/22 14:36:12;;;;;;;16.33;8.85;;;;;;;8.52;100.00;100539.88;5203850;28;20022;-82
2022/12/22 14:38:51;;;;;;;19.10;9.95;;;;;;;8.56;100.00;100546.59;5204202;28;20394;-81
2022/12/22 14:41:43;;;;;;;17.73;8.57;;;;;;;8.61;100.00;100542.59;5201039;28;20014;-81
2022/12/22 14:44:22;;;;;;;20.65;10.50;;;;;;;8.65;100.00;100543.97;5206338;28;20021;-81
2022/12/22 14:47:01;;;;;;;17.42;9.13;;;;;;;8.63;100.00;100545.94;5203428;28;20433;-81
2022/12/22 14:49:34;;;;;;;15.93;9.13;;;;;;;8.65;100.00;100536.78;5205776;28;20067;-81
2022/12/22 14:52:25;;;;;;;19.95;9.90;;;;;;;8.69;100.00;100530.13;5206194;28;20437;-81
2022/12/22 14:54:56;;;;;;;21.48;10.68;;;;;;;8.75;100.00;100528.63;5210092;28;20029;-81
2022/12/22 14:57:36;;;;;;;20.67;10.38;;;;;;;8.75;100.00;100529.47;5206767;28;20036;-81
2022/12/22 15:00:22;;;;;;;28.10;10.52;;;;;;;8.77;100.00;100527.44;5207462;28;20454;-81
2022/12/22 15:02:54;;;;;;;;;;;;;;;8.81;100.00;100525.28;5211132;28;20506;-81
2022/12/22 15:05:34;;;;;;;21.20;10.48;;;;;;;8.84;100.00;100519.63;5223279;28;19980;-81
2022/12/22 15:08:06;;;;;;;28.65;10.73;;;;;;;8.87;100.00;100519.28;5223891;28;20025;-81
2022/12/22 15:10:43;;;;;;;23.98;10.63;;;;;;;8.89;100.00;100524.50;5224006;28;20040;-81
2022/12/22 15:13:21;;;;;;;27.98;10.20;;;;;;;8.91;100.00;100520.63;5223732;28;20052;-81
2022/12/22 15:15:52;;;;;;;23.77;9.88;;;;;;;8.92;100.00;100519.63;5222738;28;20079;-81
2022/12/22 15:18:26;;;;;;;22.80;10.45;;;;;;;8.95;100.00;100510.47;5224210;28;20037;-81
2022/12/22 15:20:57;;;;;;;25.75;10.00;;;;;;;8.97;100.00;100514.63;5230020;28;20029;-81
2022/12/22 15:23:28;;;;;;;29.55;10.35;;;;;;;8.97;100.00;100511.94;5223994;28;20017;-81
2022/12/22 15:25:58;;;;;;;28.40;11.45;;;;;;;9.02;100.00;100506.13;5225118;28;20065;-79
2022/12/22 15:28:29;;;;;;;27.20;11.32;;;;;;;9.03;100.00;100507.78;5225227;28;20021;-81
2022/12/22 15:31:01;;;;;;;29.23;11.20;;;;;;;9.03;100.00;100499.75;5213943;28;20504;-82
2022/12/22 15:33:31;;;;;;;26.83;10.85;;;;;;;9.05;100.00;100497.78;5213063;28;20041;-82